sensor_id;sensor_type;location;lat;lon;timestamp;P1;durP1;ratioP1;P2;durP2;ratioP2
8297;SDS011;4187;42.778;23.242;2023-11-21T00:01:02;30.70;;;18.73;;
8297;SDS011;4187;42.778;23.242;2023-11-21T00:03:29;23.60;;;15.20;;
8297;SDS011;4187;42.778;23.242;2023-11-21T00:05:56;19.83;;;12.47;;
8297;SDS011;4187;42.778;23.242;2023-11-21T00:08:24;16.53;;;10.93;;
8297;SDS011;4187;42.778;23.242;2023-11-21T00:10:52;15.10;;;10.70;;
8297;SDS011;4187;42.778;23.242;2023-11-21T00:13:20;17.30;;;11.83;;
8297;SDS011;4187;42.778;23.242;2023-11-21T00:15:46;20.00;;;13.20;;
8297;SDS011;4187;42.778;23.242;2023-11-21T00:18:14;19.57;;;11.73;;
8297;SDS011;4187;42.778;23.242;2023-11-21T00:20:41;14.90;;;11.50;;
8297;SDS011;4187;42.778;23.242;2023-11-21T00:23:08;17.73;;;11.50;;
8297;SDS011;4187;42.778;23.242;2023-11-21T00:25:36;17.37;;;11.17;;
8297;SDS011;4187;42.778;23.242;2023-11-21T00:28:03;16.27;;;11.20;;
8297;SDS011;4187;42.778;23.242;2023-11-21T00:30:31;16.63;;;11.13;;
8297;SDS011;4187;42.778;23.242;2023-11-21T00:32:58;13.60;;;9.60;;
8297;SDS011;4187;42.778;23.242;2023-11-21T00:35:25;12.83;;;9.17;;
8297;SDS011;4187;42.778;23.242;2023-11-21T00:37:51;12.83;;;8.27;;
8297;SDS011;4187;42.778;23.242;2023-11-21T00:40:18;11.27;;;7.00;;
8297;SDS011;4187;42.778;23.242;2023-11-21T00:42:47;11.97;;;8.03;;
8297;SDS011;4187;42.778;23.242;2023-11-21T00:45:14;14.33;;;8.87;;
8297;SDS011;4187;42.778;23.242;2023-11-21T00:47:41;15.73;;;10.13;;
8297;SDS011;4187;42.778;23.242;2023-11-21T00:50:08;17.00;;;12.13;;
8297;SDS011;4187;42.778;23.242;2023-11-21T00:52:35;17.40;;;12.87;;
8297;SDS011;4187;42.778;23.242;2023-11-21T00:55:02;21.30;;;13.60;;
8297;SDS011;4187;42.778;23.242;2023-11-21T00:57:30;20.20;;;13.67;;
8297;SDS011;4187;42.778;23.242;2023-11-21T00:59:58;18.60;;;13.93;;
8297;SDS011;4187;42.778;23.242;2023-11-21T01:02:25;17.33;;;11.10;;
8297;SDS011;4187;42.778;23.242;2023-11-21T01:04:51;15.30;;;10.67;;
8297;SDS011;4187;42.778;23.242;2023-11-21T01:07:18;21.40;;;11.13;;
8297;SDS011;4187;42.778;23.242;2023-11-21T01:09:45;16.30;;;10.57;;
8297;SDS011;4187;42.778;23.242;2023-11-21T01:12:12;13.30;;;8.20;;
8297;SDS011;4187;42.778;23.242;2023-11-21T01:14:39;13.43;;;8.93;;
8297;SDS011;4187;42.778;23.242;2023-11-21T01:17:07;12.63;;;8.30;;
8297;SDS011;4187;42.778;23.242;2023-11-21T01:19:34;13.77;;;9.17;;
8297;SDS011;4187;42.778;23.242;2023-11-21T01:22:01;9.73;;;8.27;;
8297;SDS011;4187;42.778;23.242;2023-11-21T01:24:29;10.93;;;8.10;;
8297;SDS011;4187;42.778;23.242;2023-11-21T01:26:55;11.80;;;8.07;;
8297;SDS011;4187;42.778;23.242;2023-11-21T01:29:22;11.30;;;8.97;;
8297;SDS011;4187;42.778;23.242;2023-11-21T01:31:49;13.87;;;8.83;;
8297;SDS011;4187;42.778;23.242;2023-11-21T01:34:18;11.37;;;7.87;;
8297;SDS011;4187;42.778;23.242;2023-11-21T01:36:46;10.97;;;8.73;;
8297;SDS011;4187;42.778;23.242;2023-11-21T01:39:13;13.90;;;8.90;;
8297;SDS011;4187;42.778;23.242;2023-11-21T01:41:41;15.17;;;10.27;;
8297;SDS011;4187;42.778;23.242;2023-11-21T01:44:09;14.97;;;10.57;;
8297;SDS011;4187;42.778;23.242;2023-11-21T01:46:36;12.33;;;8.63;;
8297;SDS011;4187;42.778;23.242;2023-11-21T01:49:04;11.83;;;9.33;;
8297;SDS011;4187;42.778;23.242;2023-11-21T01:51:33;14.27;;;10.33;;
8297;SDS011;4187;42.778;23.242;2023-11-21T01:54:00;14.43;;;9.23;;
8297;SDS011;4187;42.778;23.242;2023-11-21T01:56:27;12.13;;;8.07;;
8297;SDS011;4187;42.778;23.242;2023-11-21T01:58:56;14.77;;;7.60;;
8297;SDS011;4187;42.778;23.242;2023-11-21T02:01:23;13.77;;;8.40;;
8297;SDS011;4187;42.778;23.242;2023-11-21T02:03:51;13.87;;;8.83;;
8297;SDS011;4187;42.778;23.242;2023-11-21T02:06:17;9.63;;;7.60;;
8297;SDS011;4187;42.778;23.242;2023-11-21T02:08:46;27.03;;;15.63;;
8297;SDS011;4187;42.778;23.242;2023-11-21T02:11:14;46.47;;;25.27;;
8297;SDS011;4187;42.778;23.242;2023-11-21T02:13:40;16.37;;;9.17;;
8297;SDS011;4187;42.778;23.242;2023-11-21T02:16:08;15.43;;;8.87;;
8297;SDS011;4187;42.778;23.242;2023-11-21T02:18:37;10.80;;;7.27;;
8297;SDS011;4187;42.778;23.242;2023-11-21T02:21:04;10.17;;;7.20;;
8297;SDS011;4187;42.778;23.242;2023-11-21T02:23:33;9.00;;;7.30;;
8297;SDS011;4187;42.778;23.242;2023-11-21T02:26:00;10.37;;;7.30;;
8297;SDS011;4187;42.778;23.242;2023-11-21T02:28:29;11.50;;;7.17;;
8297;SDS011;4187;42.778;23.242;2023-11-21T02:30:56;10.83;;;6.60;;
8297;SDS011;4187;42.778;23.242;2023-11-21T02:33:24;9.40;;;6.57;;
8297;SDS011;4187;42.778;23.242;2023-11-21T02:35:51;9.00;;;6.73;;
8297;SDS011;4187;42.778;23.242;2023-11-21T02:38:18;8.70;;;6.97;;
8297;SDS011;4187;42.778;23.242;2023-11-21T02:40:46;10.97;;;8.43;;
8297;SDS011;4187;42.778;23.242;2023-11-21T02:43:14;13.27;;;8.43;;
8297;SDS011;4187;42.778;23.242;2023-11-21T02:45:40;19.13;;;11.63;;
8297;SDS011;4187;42.778;23.242;2023-11-21T02:48:08;15.57;;;10.93;;
8297;SDS011;4187;42.778;23.242;2023-11-21T02:50:34;18.83;;;12.93;;
8297;SDS011;4187;42.778;23.242;2023-11-21T02:53:02;18.47;;;12.33;;
8297;SDS011;4187;42.778;23.242;2023-11-21T02:55:30;18.37;;;12.23;;
8297;SDS011;4187;42.778;23.242;2023-11-21T02:58:01;17.80;;;11.73;;
8297;SDS011;4187;42.778;23.242;2023-11-21T03:00:28;26.10;;;14.40;;
8297;SDS011;4187;42.778;23.242;2023-11-21T03:02:55;29.20;;;15.50;;
8297;SDS011;4187;42.778;23.242;2023-11-21T03:05:22;18.10;;;11.80;;
8297;SDS011;4187;42.778;23.242;2023-11-21T03:07:49;17.77;;;11.50;;
8297;SDS011;4187;42.778;23.242;2023-11-21T03:10:16;16.00;;;12.70;;
8297;SDS011;4187;42.778;23.242;2023-11-21T03:12:43;23.17;;;13.23;;
8297;SDS011;4187;42.778;23.242;2023-11-21T03:15:11;21.23;;;14.63;;
8297;SDS011;4187;42.778;23.242;2023-11-21T03:17:38;20.93;;;13.93;;
8297;SDS011;4187;42.778;23.242;2023-11-21T03:20:06;18.03;;;11.27;;
8297;SDS011;4187;42.778;23.242;2023-11-21T03:22:36;15.70;;;9.87;;
8297;SDS011;4187;42.778;23.242;2023-11-21T03:25:03;15.63;;;10.07;;
8297;SDS011;4187;42.778;23.242;2023-11-21T03:27:31;9.70;;;7.13;;
8297;SDS011;4187;42.778;23.242;2023-11-21T03:29:58;11.70;;;6.93;;
8297;SDS011;4187;42.778;23.242;2023-11-21T03:32:26;12.70;;;8.27;;
8297;SDS011;4187;42.778;23.242;2023-11-21T03:34:53;13.20;;;10.70;;
8297;SDS011;4187;42.778;23.242;2023-11-21T03:37:21;16.13;;;10.40;;
8297;SDS011;4187;42.778;23.242;2023-11-21T03:39:48;18.83;;;11.03;;
8297;SDS011;4187;42.778;23.242;2023-11-21T03:42:15;12.20;;;10.90;;
8297;SDS011;4187;42.778;23.242;2023-11-21T03:44:42;14.53;;;10.93;;
8297;SDS011;4187;42.778;23.242;2023-11-21T03:47:09;12.40;;;10.33;;
8297;SDS011;4187;42.778;23.242;2023-11-21T03:49:37;18.10;;;11.47;;
8297;SDS011;4187;42.778;23.242;2023-11-21T03:52:05;14.70;;;10.80;;
8297;SDS011;4187;42.778;23.242;2023-11-21T03:54:32;16.20;;;11.60;;
8297;SDS011;4187;42.778;23.242;2023-11-21T03:56:59;19.27;;;13.37;;
8297;SDS011;4187;42.778;23.242;2023-11-21T03:59:26;18.37;;;12.27;;
8297;SDS011;4187;42.778;23.242;2023-11-21T04:01:54;13.57;;;10.47;;
8297;SDS011;4187;42.778;23.242;2023-11-21T04:04:22;14.97;;;9.80;;
8297;SDS011;4187;42.778;23.242;2023-11-21T04:06:50;16.40;;;11.00;;
8297;SDS011;4187;42.778;23.242;2023-11-21T04:09:17;16.73;;;10.23;;
8297;SDS011;4187;42.778;23.242;2023-11-21T04:11:44;16.17;;;11.67;;
8297;SDS011;4187;42.778;23.242;2023-11-21T04:14:11;20.20;;;13.33;;
8297;SDS011;4187;42.778;23.242;2023-11-21T04:16:38;41.57;;;26.13;;
8297;SDS011;4187;42.778;23.242;2023-11-21T04:19:07;28.07;;;20.53;;
8297;SDS011;4187;42.778;23.242;2023-11-21T04:21:35;23.17;;;16.57;;
8297;SDS011;4187;42.778;23.242;2023-11-21T04:24:04;27.03;;;17.03;;
8297;SDS011;4187;42.778;23.242;2023-11-21T04:26:31;23.03;;;14.30;;
8297;SDS011;4187;42.778;23.242;2023-11-21T04:28:58;24.10;;;16.17;;
8297;SDS011;4187;42.778;23.242;2023-11-21T04:31:25;27.60;;;19.70;;
8297;SDS011;4187;42.778;23.242;2023-11-21T04:33:51;23.17;;;15.03;;
8297;SDS011;4187;42.778;23.242;2023-11-21T04:36:18;24.13;;;16.47;;
8297;SDS011;4187;42.778;23.242;2023-11-21T04:38:46;26.20;;;18.13;;
8297;SDS011;4187;42.778;23.242;2023-11-21T04:41:14;22.27;;;12.87;;
8297;SDS011;4187;42.778;23.242;2023-11-21T04:43:41;18.10;;;12.80;;
8297;SDS011;4187;42.778;23.242;2023-11-21T04:46:08;18.70;;;9.80;;
8297;SDS011;4187;42.778;23.242;2023-11-21T04:48:35;26.30;;;16.00;;
8297;SDS011;4187;42.778;23.242;2023-11-21T04:51:02;21.53;;;13.47;;
8297;SDS011;4187;42.778;23.242;2023-11-21T04:53:29;14.93;;;10.47;;
8297;SDS011;4187;42.778;23.242;2023-11-21T04:55:56;16.87;;;12.00;;
8297;SDS011;4187;42.778;23.242;2023-11-21T04:58:24;18.27;;;11.57;;
8297;SDS011;4187;42.778;23.242;2023-11-21T05:00:51;15.73;;;11.67;;
8297;SDS011;4187;42.778;23.242;2023-11-21T05:03:17;13.10;;;10.07;;
8297;SDS011;4187;42.778;23.242;2023-11-21T05:05:44;16.97;;;10.57;;
8297;SDS011;4187;42.778;23.242;2023-11-21T05:08:11;14.27;;;9.67;;
8297;SDS011;4187;42.778;23.242;2023-11-21T05:10:38;16.30;;;10.33;;
8297;SDS011;4187;42.778;23.242;2023-11-21T05:13:05;19.63;;;12.30;;
8297;SDS011;4187;42.778;23.242;2023-11-21T05:15:36;23.90;;;13.47;;
8297;SDS011;4187;42.778;23.242;2023-11-21T05:18:03;19.80;;;12.70;;
8297;SDS011;4187;42.778;23.242;2023-11-21T05:20:30;17.57;;;13.43;;
8297;SDS011;4187;42.778;23.242;2023-11-21T05:22:58;17.97;;;12.30;;
8297;SDS011;4187;42.778;23.242;2023-11-21T05:25:25;16.87;;;11.77;;
8297;SDS011;4187;42.778;23.242;2023-11-21T05:27:51;18.07;;;12.73;;
8297;SDS011;4187;42.778;23.242;2023-11-21T05:30:19;50.00;;;28.03;;
8297;SDS011;4187;42.778;23.242;2023-11-21T05:32:48;22.67;;;13.97;;
8297;SDS011;4187;42.778;23.242;2023-11-21T05:35:15;12.73;;;9.30;;
8297;SDS011;4187;42.778;23.242;2023-11-21T05:37:43;11.27;;;8.97;;
8297;SDS011;4187;42.778;23.242;2023-11-21T05:40:12;15.00;;;9.53;;
8297;SDS011;4187;42.778;23.242;2023-11-21T05:42:40;13.87;;;8.90;;
8297;SDS011;4187;42.778;23.242;2023-11-21T05:45:07;15.10;;;9.00;;
8297;SDS011;4187;42.778;23.242;2023-11-21T05:47:36;13.50;;;9.63;;
8297;SDS011;4187;42.778;23.242;2023-11-21T05:50:06;15.50;;;10.33;;
8297;SDS011;4187;42.778;23.242;2023-11-21T05:52:37;19.10;;;12.63;;
8297;SDS011;4187;42.778;23.242;2023-11-21T05:55:05;20.40;;;14.20;;
8297;SDS011;4187;42.778;23.242;2023-11-21T05:57:32;24.77;;;15.07;;
8297;SDS011;4187;42.778;23.242;2023-11-21T06:00:01;16.57;;;12.93;;
8297;SDS011;4187;42.778;23.242;2023-11-21T06:02:36;18.63;;;13.03;;
8297;SDS011;4187;42.778;23.242;2023-11-21T06:05:05;17.73;;;12.70;;
8297;SDS011;4187;42.778;23.242;2023-11-21T06:07:33;20.30;;;14.40;;
8297;SDS011;4187;42.778;23.242;2023-11-21T06:10:00;26.57;;;18.30;;
8297;SDS011;4187;42.778;23.242;2023-11-21T06:12:31;27.43;;;18.47;;
8297;SDS011;4187;42.778;23.242;2023-11-21T06:15:00;32.23;;;20.33;;
8297;SDS011;4187;42.778;23.242;2023-11-21T06:17:29;29.90;;;19.93;;
8297;SDS011;4187;42.778;23.242;2023-11-21T06:19:56;40.63;;;29.67;;
8297;SDS011;4187;42.778;23.242;2023-11-21T06:22:24;38.27;;;27.93;;
8297;SDS011;4187;42.778;23.242;2023-11-21T06:24:50;32.13;;;22.07;;
8297;SDS011;4187;42.778;23.242;2023-11-21T06:27:17;26.93;;;20.10;;
8297;SDS011;4187;42.778;23.242;2023-11-21T06:29:44;27.57;;;18.73;;
8297;SDS011;4187;42.778;23.242;2023-11-21T06:32:12;24.27;;;17.37;;
8297;SDS011;4187;42.778;23.242;2023-11-21T06:34:41;31.97;;;19.00;;
8297;SDS011;4187;42.778;23.242;2023-11-21T06:37:08;30.77;;;19.40;;
8297;SDS011;4187;42.778;23.242;2023-11-21T06:39:37;31.17;;;17.53;;
8297;SDS011;4187;42.778;23.242;2023-11-21T06:42:04;73.87;;;41.67;;
8297;SDS011;4187;42.778;23.242;2023-11-21T06:44:32;64.30;;;37.70;;
8297;SDS011;4187;42.778;23.242;2023-11-21T06:47:00;41.53;;;24.23;;
8297;SDS011;4187;42.778;23.242;2023-11-21T06:49:27;20.10;;;14.77;;
8297;SDS011;4187;42.778;23.242;2023-11-21T06:51:54;18.70;;;12.63;;
8297;SDS011;4187;42.778;23.242;2023-11-21T06:54:21;17.20;;;13.03;;
8297;SDS011;4187;42.778;23.242;2023-11-21T06:56:49;18.77;;;12.20;;
8297;SDS011;4187;42.778;23.242;2023-11-21T06:59:18;20.97;;;14.77;;
8297;SDS011;4187;42.778;23.242;2023-11-21T07:01:45;21.83;;;14.03;;
8297;SDS011;4187;42.778;23.242;2023-11-21T07:04:12;24.60;;;16.30;;
8297;SDS011;4187;42.778;23.242;2023-11-21T07:06:38;28.13;;;18.67;;
8297;SDS011;4187;42.778;23.242;2023-11-21T07:09:06;23.27;;;16.40;;
8297;SDS011;4187;42.778;23.242;2023-11-21T07:11:33;19.77;;;14.80;;
8297;SDS011;4187;42.778;23.242;2023-11-21T07:14:01;17.57;;;13.60;;
8297;SDS011;4187;42.778;23.242;2023-11-21T07:16:32;17.20;;;12.67;;
8297;SDS011;4187;42.778;23.242;2023-11-21T07:19:00;15.30;;;10.93;;
8297;SDS011;4187;42.778;23.242;2023-11-21T07:21:26;14.70;;;10.13;;
8297;SDS011;4187;42.778;23.242;2023-11-21T07:23:54;15.63;;;9.63;;
8297;SDS011;4187;42.778;23.242;2023-11-21T07:26:20;11.33;;;8.83;;
8297;SDS011;4187;42.778;23.242;2023-11-21T07:28:47;17.27;;;8.57;;
8297;SDS011;4187;42.778;23.242;2023-11-21T07:31:15;10.67;;;7.60;;
8297;SDS011;4187;42.778;23.242;2023-11-21T07:33:42;10.60;;;8.33;;
8297;SDS011;4187;42.778;23.242;2023-11-21T07:36:12;13.90;;;9.43;;
8297;SDS011;4187;42.778;23.242;2023-11-21T07:38:39;10.67;;;8.63;;
8297;SDS011;4187;42.778;23.242;2023-11-21T07:41:06;11.77;;;8.73;;
8297;SDS011;4187;42.778;23.242;2023-11-21T07:43:34;10.53;;;8.37;;
8297;SDS011;4187;42.778;23.242;2023-11-21T07:46:01;9.43;;;7.07;;
8297;SDS011;4187;42.778;23.242;2023-11-21T07:48:30;8.63;;;7.43;;
8297;SDS011;4187;42.778;23.242;2023-11-21T07:50:57;9.40;;;8.07;;
8297;SDS011;4187;42.778;23.242;2023-11-21T07:53:24;13.77;;;8.53;;
8297;SDS011;4187;42.778;23.242;2023-11-21T07:55:55;8.40;;;7.43;;
8297;SDS011;4187;42.778;23.242;2023-11-21T07:58:22;11.33;;;7.77;;
8297;SDS011;4187;42.778;23.242;2023-11-21T08:00:49;14.33;;;8.03;;
8297;SDS011;4187;42.778;23.242;2023-11-21T08:03:16;16.73;;;9.20;;
8297;SDS011;4187;42.778;23.242;2023-11-21T08:05:45;12.13;;;9.23;;
8297;SDS011;4187;42.778;23.242;2023-11-21T08:08:12;12.13;;;8.40;;
8297;SDS011;4187;42.778;23.242;2023-11-21T08:10:39;10.50;;;8.43;;
8297;SDS011;4187;42.778;23.242;2023-11-21T08:13:07;10.57;;;8.53;;
8297;SDS011;4187;42.778;23.242;2023-11-21T08:15:39;13.27;;;9.13;;
8297;SDS011;4187;42.778;23.242;2023-11-21T08:18:10;15.23;;;9.10;;
8297;SDS011;4187;42.778;23.242;2023-11-21T08:20:38;13.43;;;10.87;;
8297;SDS011;4187;42.778;23.242;2023-11-21T08:23:06;12.13;;;7.67;;
8297;SDS011;4187;42.778;23.242;2023-11-21T08:25:33;9.23;;;7.43;;
8297;SDS011;4187;42.778;23.242;2023-11-21T08:28:00;11.70;;;7.63;;
8297;SDS011;4187;42.778;23.242;2023-11-21T08:30:26;9.57;;;8.30;;
8297;SDS011;4187;42.778;23.242;2023-11-21T08:32:55;12.30;;;9.10;;
8297;SDS011;4187;42.778;23.242;2023-11-21T08:35:23;10.53;;;8.70;;
8297;SDS011;4187;42.778;23.242;2023-11-21T08:37:50;12.10;;;8.93;;
8297;SDS011;4187;42.778;23.242;2023-11-21T08:40:19;10.67;;;8.33;;
8297;SDS011;4187;42.778;23.242;2023-11-21T09:02:58;12.20;;;10.35;;
8297;SDS011;4187;42.778;23.242;2023-11-21T09:05:25;11.15;;;9.07;;
8297;SDS011;4187;42.778;23.242;2023-11-21T09:07:52;11.88;;;9.68;;
8297;SDS011;4187;42.778;23.242;2023-11-21T09:10:19;12.80;;;9.43;;
8297;SDS011;4187;42.778;23.242;2023-11-21T09:12:46;9.50;;;8.50;;
8297;SDS011;4187;42.778;23.242;2023-11-21T09:15:12;19.05;;;12.38;;
8297;SDS011;4187;42.778;23.242;2023-11-21T09:17:40;13.50;;;11.20;;
8297;SDS011;4187;42.778;23.242;2023-11-21T09:20:16;13.82;;;10.95;;
8297;SDS011;4187;42.778;23.242;2023-11-21T09:22:42;15.00;;;11.70;;
8297;SDS011;4187;42.778;23.242;2023-11-21T09:25:11;11.88;;;10.27;;
8297;SDS011;4187;42.778;23.242;2023-11-21T09:27:38;15.50;;;10.25;;
8297;SDS011;4187;42.778;23.242;2023-11-21T09:30:05;15.52;;;11.05;;
8297;SDS011;4187;42.778;23.242;2023-11-21T09:32:35;14.95;;;11.00;;
8297;SDS011;4187;42.778;23.242;2023-11-21T09:35:02;14.93;;;10.85;;
8297;SDS011;4187;42.778;23.242;2023-11-21T09:37:31;11.65;;;10.07;;
8297;SDS011;4187;42.778;23.242;2023-11-21T09:40:00;16.58;;;11.27;;
8297;SDS011;4187;42.778;23.242;2023-11-21T09:42:30;18.60;;;10.63;;
8297;SDS011;4187;42.778;23.242;2023-11-21T09:45:03;12.00;;;9.43;;
8297;SDS011;4187;42.778;23.242;2023-11-21T09:47:33;10.13;;;8.10;;
8297;SDS011;4187;42.778;23.242;2023-11-21T09:50:04;13.57;;;9.43;;
8297;SDS011;4187;42.778;23.242;2023-11-21T09:52:37;11.68;;;8.95;;
8297;SDS011;4187;42.778;23.242;2023-11-21T09:55:10;13.55;;;9.00;;
8297;SDS011;4187;42.778;23.242;2023-11-21T09:57:40;17.27;;;10.05;;
8297;SDS011;4187;42.778;23.242;2023-11-21T10:00:08;15.68;;;10.30;;
8297;SDS011;4187;42.778;23.242;2023-11-21T10:02:37;14.13;;;10.60;;
8297;SDS011;4187;42.778;23.242;2023-11-21T10:05:06;16.98;;;11.98;;
8297;SDS011;4187;42.778;23.242;2023-11-21T10:07:36;17.02;;;12.23;;
8297;SDS011;4187;42.778;23.242;2023-11-21T10:10:05;15.20;;;11.70;;
8297;SDS011;4187;42.778;23.242;2023-11-21T10:12:35;18.58;;;12.68;;
8297;SDS011;4187;42.778;23.242;2023-11-21T10:15:03;16.00;;;12.57;;
8297;SDS011;4187;42.778;23.242;2023-11-21T10:17:36;22.45;;;13.45;;
8297;SDS011;4187;42.778;23.242;2023-11-21T10:20:08;22.83;;;12.98;;
8297;SDS011;4187;42.778;23.242;2023-11-21T10:22:40;17.70;;;12.98;;
8297;SDS011;4187;42.778;23.242;2023-11-21T10:25:08;16.73;;;13.57;;
8297;SDS011;4187;42.778;23.242;2023-11-21T10:27:35;19.40;;;13.65;;
8297;SDS011;4187;42.778;23.242;2023-11-21T10:30:04;18.73;;;14.50;;
8297;SDS011;4187;42.778;23.242;2023-11-21T10:32:32;21.52;;;15.63;;
8297;SDS011;4187;42.778;23.242;2023-11-21T10:35:00;16.73;;;13.80;;
8297;SDS011;4187;42.778;23.242;2023-11-21T10:37:31;18.25;;;13.55;;
8297;SDS011;4187;42.778;23.242;2023-11-21T10:40:00;19.42;;;14.82;;
8297;SDS011;4187;42.778;23.242;2023-11-21T10:42:26;21.58;;;15.15;;
8297;SDS011;4187;42.778;23.242;2023-11-21T10:44:54;22.42;;;15.25;;
8297;SDS011;4187;42.778;23.242;2023-11-21T10:47:21;18.15;;;14.10;;
8297;SDS011;4187;42.778;23.242;2023-11-21T10:49:48;22.13;;;17.88;;
8297;SDS011;4187;42.778;23.242;2023-11-21T10:52:15;20.27;;;15.43;;
8297;SDS011;4187;42.778;23.242;2023-11-21T10:54:45;20.77;;;16.92;;
8297;SDS011;4187;42.778;23.242;2023-11-21T10:57:16;21.23;;;15.48;;
8297;SDS011;4187;42.778;23.242;2023-11-21T10:59:46;21.45;;;16.00;;
8297;SDS011;4187;42.778;23.242;2023-11-21T11:02:17;20.45;;;15.75;;
8297;SDS011;4187;42.778;23.242;2023-11-21T11:04:50;20.85;;;15.73;;
8297;SDS011;4187;42.778;23.242;2023-11-21T11:07:20;20.55;;;15.82;;
8297;SDS011;4187;42.778;23.242;2023-11-21T11:09:53;20.55;;;15.07;;
8297;SDS011;4187;42.778;23.242;2023-11-21T11:12:23;18.55;;;16.30;;
8297;SDS011;4187;42.778;23.242;2023-11-21T11:14:50;19.63;;;16.17;;
8297;SDS011;4187;42.778;23.242;2023-11-21T11:17:18;17.45;;;14.90;;
8297;SDS011;4187;42.778;23.242;2023-11-21T11:19:45;19.13;;;13.20;;
8297;SDS011;4187;42.778;23.242;2023-11-21T11:22:16;18.23;;;13.20;;
8297;SDS011;4187;42.778;23.242;2023-11-21T11:25:06;16.65;;;12.82;;
8297;SDS011;4187;42.778;23.242;2023-11-21T11:27:51;19.70;;;12.98;;
8297;SDS011;4187;42.778;23.242;2023-11-21T11:30:25;19.50;;;13.43;;
8297;SDS011;4187;42.778;23.242;2023-11-21T11:33:05;20.95;;;14.13;;
8297;SDS011;4187;42.778;23.242;2023-11-21T11:35:38;20.40;;;13.48;;
8297;SDS011;4187;42.778;23.242;2023-11-21T11:38:17;26.15;;;14.40;;
8297;SDS011;4187;42.778;23.242;2023-11-21T11:40:45;18.15;;;14.98;;
8297;SDS011;4187;42.778;23.242;2023-11-21T11:43:16;16.98;;;13.10;;
8297;SDS011;4187;42.778;23.242;2023-11-21T11:45:55;17.05;;;11.35;;
8297;SDS011;4187;42.778;23.242;2023-11-21T11:48:24;18.02;;;12.90;;
8297;SDS011;4187;42.778;23.242;2023-11-21T11:51:01;19.02;;;13.05;;
8297;SDS011;4187;42.778;23.242;2023-11-21T11:53:33;13.85;;;11.45;;
8297;SDS011;4187;42.778;23.242;2023-11-21T11:58:52;22.90;;;14.93;;
8297;SDS011;4187;42.778;23.242;2023-11-21T12:01:20;20.55;;;12.93;;
8297;SDS011;4187;42.778;23.242;2023-11-21T12:06:50;14.23;;;12.43;;
8297;SDS011;4187;42.778;23.242;2023-11-21T12:09:18;16.75;;;11.57;;
8297;SDS011;4187;42.778;23.242;2023-11-21T12:11:46;14.52;;;11.15;;
8297;SDS011;4187;42.778;23.242;2023-11-21T12:14:15;17.23;;;11.88;;
8297;SDS011;4187;42.778;23.242;2023-11-21T12:16:42;16.92;;;12.05;;
8297;SDS011;4187;42.778;23.242;2023-11-21T12:19:10;16.02;;;11.57;;
8297;SDS011;4187;42.778;23.242;2023-11-21T12:21:38;19.75;;;14.38;;
8297;SDS011;4187;42.778;23.242;2023-11-21T12:24:07;26.08;;;14.68;;
8297;SDS011;4187;42.778;23.242;2023-11-21T12:26:34;25.23;;;16.35;;
8297;SDS011;4187;42.778;23.242;2023-11-21T12:29:01;20.90;;;15.50;;
8297;SDS011;4187;42.778;23.242;2023-11-21T12:31:32;21.35;;;13.70;;
8297;SDS011;4187;42.778;23.242;2023-11-21T12:34:00;18.27;;;14.98;;
8297;SDS011;4187;42.778;23.242;2023-11-21T12:36:27;22.42;;;15.48;;
8297;SDS011;4187;42.778;23.242;2023-11-21T12:38:55;30.80;;;19.23;;
8297;SDS011;4187;42.778;23.242;2023-11-21T12:41:25;30.55;;;21.15;;
8297;SDS011;4187;42.778;23.242;2023-11-21T12:43:52;27.10;;;18.80;;
8297;SDS011;4187;42.778;23.242;2023-11-21T12:46:19;21.15;;;17.92;;
8297;SDS011;4187;42.778;23.242;2023-11-21T12:48:49;25.63;;;18.48;;
8297;SDS011;4187;42.778;23.242;2023-11-21T12:51:15;33.25;;;19.92;;
8297;SDS011;4187;42.778;23.242;2023-11-21T12:53:44;27.20;;;20.55;;
8297;SDS011;4187;42.778;23.242;2023-11-21T12:56:12;25.23;;;19.15;;
8297;SDS011;4187;42.778;23.242;2023-11-21T12:58:44;26.40;;;19.63;;
8297;SDS011;4187;42.778;23.242;2023-11-21T13:01:13;22.02;;;16.23;;
8297;SDS011;4187;42.778;23.242;2023-11-21T13:03:45;23.55;;;18.23;;
8297;SDS011;4187;42.778;23.242;2023-11-21T13:06:17;23.05;;;17.05;;
8297;SDS011;4187;42.778;23.242;2023-11-21T13:08:49;26.17;;;19.60;;
8297;SDS011;4187;42.778;23.242;2023-11-21T13:11:17;25.67;;;19.17;;
8297;SDS011;4187;42.778;23.242;2023-11-21T13:13:44;26.45;;;18.35;;
8297;SDS011;4187;42.778;23.242;2023-11-21T13:16:11;27.52;;;20.30;;
8297;SDS011;4187;42.778;23.242;2023-11-21T13:18:40;25.70;;;18.92;;
8297;SDS011;4187;42.778;23.242;2023-11-21T13:21:09;19.65;;;15.90;;
8297;SDS011;4187;42.778;23.242;2023-11-21T13:23:43;23.05;;;15.75;;
8297;SDS011;4187;42.778;23.242;2023-11-21T13:26:11;18.33;;;14.63;;
8297;SDS011;4187;42.778;23.242;2023-11-21T13:28:39;17.33;;;13.40;;
8297;SDS011;4187;42.778;23.242;2023-11-21T13:31:12;17.70;;;13.15;;
8297;SDS011;4187;42.778;23.242;2023-11-21T13:33:52;21.33;;;14.10;;
8297;SDS011;4187;42.778;23.242;2023-11-21T13:36:24;29.92;;;19.13;;
8297;SDS011;4187;42.778;23.242;2023-11-21T13:38:56;43.60;;;26.55;;
8297;SDS011;4187;42.778;23.242;2023-11-21T13:41:24;35.78;;;23.65;;
8297;SDS011;4187;42.778;23.242;2023-11-21T13:43:55;36.80;;;24.70;;
8297;SDS011;4187;42.778;23.242;2023-11-21T13:46:31;34.60;;;25.15;;
8297;SDS011;4187;42.778;23.242;2023-11-21T13:49:02;36.67;;;24.08;;
8297;SDS011;4187;42.778;23.242;2023-11-21T13:51:30;46.72;;;31.00;;
8297;SDS011;4187;42.778;23.242;2023-11-21T13:54:05;44.00;;;26.58;;
8297;SDS011;4187;42.778;23.242;2023-11-21T13:56:34;58.30;;;32.83;;
8297;SDS011;4187;42.778;23.242;2023-11-21T13:59:02;58.22;;;32.92;;
8297;SDS011;4187;42.778;23.242;2023-11-21T14:01:38;28.63;;;22.45;;
8297;SDS011;4187;42.778;23.242;2023-11-21T14:04:20;35.25;;;22.38;;
8297;SDS011;4187;42.778;23.242;2023-11-21T14:07:00;20.45;;;16.77;;
8297;SDS011;4187;42.778;23.242;2023-11-21T14:09:44;14.15;;;10.80;;
8297;SDS011;4187;42.778;23.242;2023-11-21T14:12:11;14.32;;;10.48;;
8297;SDS011;4187;42.778;23.242;2023-11-21T14:14:39;13.97;;;10.73;;
8297;SDS011;4187;42.778;23.242;2023-11-21T14:17:06;22.60;;;13.40;;
8297;SDS011;4187;42.778;23.242;2023-11-21T14:19:34;16.65;;;12.90;;
8297;SDS011;4187;42.778;23.242;2023-11-21T14:22:04;17.80;;;10.98;;
8297;SDS011;4187;42.778;23.242;2023-11-21T14:24:30;12.20;;;10.43;;
8297;SDS011;4187;42.778;23.242;2023-11-21T14:26:59;12.57;;;9.67;;
8297;SDS011;4187;42.778;23.242;2023-11-21T14:29:26;12.50;;;9.80;;
8297;SDS011;4187;42.778;23.242;2023-11-21T14:31:54;13.63;;;9.97;;
8297;SDS011;4187;42.778;23.242;2023-11-21T14:34:23;15.33;;;10.67;;
8297;SDS011;4187;42.778;23.242;2023-11-21T14:36:51;14.80;;;10.68;;
8297;SDS011;4187;42.778;23.242;2023-11-21T14:39:18;16.03;;;10.33;;
8297;SDS011;4187;42.778;23.242;2023-11-21T14:41:48;15.45;;;9.68;;
8297;SDS011;4187;42.778;23.242;2023-11-21T14:44:17;15.75;;;10.15;;
8297;SDS011;4187;42.778;23.242;2023-11-21T14:46:44;14.40;;;10.90;;
8297;SDS011;4187;42.778;23.242;2023-11-21T14:49:11;14.75;;;10.43;;
8297;SDS011;4187;42.778;23.242;2023-11-21T14:51:44;19.92;;;10.50;;
8297;SDS011;4187;42.778;23.242;2023-11-21T14:54:25;14.15;;;9.50;;
8297;SDS011;4187;42.778;23.242;2023-11-21T14:57:05;18.90;;;11.10;;
8297;SDS011;4187;42.778;23.242;2023-11-21T14:59:42;16.95;;;10.73;;
8297;SDS011;4187;42.778;23.242;2023-11-21T15:02:12;15.68;;;11.02;;
8297;SDS011;4187;42.778;23.242;2023-11-21T15:04:46;14.85;;;11.55;;
8297;SDS011;4187;42.778;23.242;2023-11-21T15:07:13;20.58;;;13.18;;
8297;SDS011;4187;42.778;23.242;2023-11-21T15:09:39;23.75;;;15.85;;
8297;SDS011;4187;42.778;23.242;2023-11-21T15:12:07;63.33;;;36.05;;